Los Altos, CA (94022)

4:37 AM PDT on September 02, 2015 (GMT -0700)
KCALOSAL1 | | Change Station
CLOSE
Current Station
Personal Weather Station
Location: Los Altos Hills, CA
Elevation: 246 ft
Nearby Weather Stations

Elev 246 ft 37.38 °N, 122.13 °W | Updated 2 minutes ago

Clear
Clear
--
Feels Like --
N
0.0
Wind Variable Wind from NE
Gusts 0.0 mph

Today
High -- | Low -- °F
--% Chance of Precip.
Yesterday
High -- | Low -- °F
Precip. -- in
6:39 AM 7:36 PM
Waning Gibbous, 81% visible
Pressure 29.96 in
Visibility 10.0 miles
Clouds Clear
Dew Point 0.0 °F
Humidity 100%
Rainfall Not available.
Snow Depth Not available.
UV 0 out of 12
Pollen 7.10 out of 12
Air Quality Not available.
Flu Activity Not available.
METAR KNUQ 021056Z 00000KT 10SM CLR 16/12 A2995 RMK AO2 SLP145 T01610117
Pressure 29.96 in
Visibility 10.0 miles
Clouds Clear
Dew Point 0.0 °F
Humidity 100%
Rainfall Not available.
Snow Depth Not available.
UV 0 out of 12
Pollen 7.10 out of 12
Air Quality Not available.
Flu Activity Not available.
METAR KNUQ 021056Z 00000KT 10SM CLR 16/12 A2995 RMK AO2 SLP145 T01610117

10-Day Weather Forecast

×

Almanac

Astronomy

Sep. 02, 2015 Rise Set
Actual Time
Civil Twilight
Nautical Twilight
Astronomical Twilight
Moon
Length of Visible Light
Length of Day
Tomorrow will be .
, % of the Moon is Illuminated

Today's Extremes

State Highs State Lows

Community

WunderPhotos

Upload Photos

1,851,736 photos uploaded!

WunderBlogs® & News

Nearby

Air Quality

  Air Quality AQ Index Pollutant
Not available.

Snow Depth

Station Depth Elevation

Earthquake Activity

City Distance Mag. Time & Date
Minimum magnitude displayed is 2.5.

Coastal Water Temperatures

Place Temperature

Stations

Nearby Weather Stations

Station Location Temp. Windchill Dew Point Humidity Wind Precip. Elev Updated Type